Time;durP1;ratioP1;P1;durP2;ratioP2;P2;SDS_P1;SDS_P2;PMS_P1;PMS_P2;Temp;Humidity;BMP_temperature;BMP_pressure;BME280_temperature;BME280_humidity;BME280_pressure;Samples;Min_cycle;Max_cycle;Signal;HPM_P1;HPM_P2
2022/11/18 00:02:01;;;;;;;6.17;5.77;;;;;;;7.39;100.00;94945.53;4995468;28;20176;-68
2022/11/18 00:04:27;;;;;;;6.97;6.50;;;;;;;7.36;100.00;94938.19;4996038;28;20548;-69
2022/11/18 00:06:52;;;;;;;7.17;6.57;;;;;;;7.29;100.00;94942.88;4995572;28;20233;-69
2022/11/18 00:09:17;;;;;;;7.33;6.83;;;;;;;7.27;100.00;94942.31;4995484;28;20192;-69
2022/11/18 00:14:26;;;;;;;7.80;7.27;;;;;;;7.28;100.00;94943.91;4962168;28;20609;-68
2022/11/18 00:17:00;;;;;;;6.77;6.37;;;;;;;7.29;100.00;94945.47;4976218;28;20212;-69
2022/11/18 00:19:29;;;;;;;5.23;4.93;;;;;;;7.40;100.00;94943.72;4958848;28;20275;-68
2022/11/18 00:21:55;;;;;;;6.87;6.47;;;;;;;7.32;100.00;94944.97;4975954;28;20195;-68
2022/11/18 00:24:24;;;;;;;6.70;6.30;;;;;;;7.35;100.00;94941.88;4980341;28;20184;-69
2022/11/18 00:26:49;;;;;;;6.37;6.07;;;;;;;7.38;100.00;94941.34;4987508;28;20295;-69
2022/11/18 00:29:15;;;;;;;6.27;5.97;;;;;;;7.40;100.00;94949.72;4976098;28;20372;-69
2022/11/18 00:31:41;;;;;;;7.10;6.63;;;;;;;7.27;100.00;94947.53;4969448;28;20241;-69
2022/11/18 00:34:08;;;;;;;7.23;6.83;;;;;;;7.42;100.00;94945.00;4976238;28;20193;-68
2022/11/18 00:36:34;;;;;;;7.90;7.30;;;;;;;7.35;100.00;94948.91;4990564;28;20192;-70
2022/11/18 00:38:59;;;;;;;7.83;7.43;;;;;;;7.29;100.00;94955.13;4958495;28;20259;-69
2022/11/18 00:42:49;;;;;;;9.13;8.53;;;;;;;7.36;100.00;94948.63;4975834;28;20247;-68
2022/11/18 00:44:09;;;;;;;7.30;6.93;;;;;;;7.35;100.00;94959.31;4977041;28;20198;-68
2022/11/18 00:46:35;;;;;;;8.50;8.10;;;;;;;7.30;100.00;94965.25;4994750;28;20558;-68
2022/11/18 00:49:00;;;;;;;9.83;9.33;;;;;;;7.33;100.00;94961.38;4994854;28;20235;-68
2022/11/18 00:51:25;;;;;;;8.47;7.97;;;;;;;7.35;100.00;94965.31;4989211;28;20274;-68
2022/11/18 00:53:51;;;;;;;7.73;7.43;;;;;;;7.26;100.00;94959.00;4994768;28;20219;-69
2022/11/18 00:56:16;;;;;;;9.43;8.93;;;;;;;7.38;100.00;94964.03;4975658;28;20196;-68
2022/11/18 00:58:41;;;;;;;8.03;7.63;;;;;;;7.36;100.00;94963.47;4975389;28;20272;-68
2022/11/18 01:01:07;;;;;;;9.17;8.57;;;;;;;7.33;100.00;94958.78;4977511;28;20204;-68
2022/11/18 01:03:32;;;;;;;8.00;7.60;;;;;;;7.33;100.00;94958.78;4994770;28;20466;-69
2022/11/18 01:05:57;;;;;;;7.73;7.33;;;;;;;7.34;100.00;94957.75;4981557;28;20208;-69
2022/11/18 01:08:24;;;;;;;9.80;9.30;;;;;;;7.34;100.00;94960.34;4975393;28;20180;-69
2022/11/18 01:10:51;;;;;;;8.17;7.67;;;;;;;7.27;100.00;94960.56;4975511;28;20335;-69
2022/11/18 01:13:18;;;;;;;6.67;6.37;;;;;;;7.24;100.00;94958.47;4980745;28;20212;-69
2022/11/18 01:15:46;;;;;;;6.83;6.53;;;;;;;7.19;100.00;94955.03;4985410;28;20188;-69
2022/11/18 01:18:11;;;;;;;7.60;7.30;;;;;;;7.16;100.00;94950.31;4975986;28;20242;-69
2022/11/18 01:20:36;;;;;;;7.03;6.63;;;;;;;7.21;100.00;94956.34;4994197;28;20642;-69
2022/11/18 01:23:02;;;;;;;6.80;6.40;;;;;;;7.16;100.00;94952.94;4993038;28;20602;-68
2022/11/18 01:25:28;;;;;;;6.47;6.13;;;;;;;7.24;100.00;94953.25;4985644;28;20340;-69
2022/11/18 01:27:54;;;;;;;6.33;6.13;;;;;;;7.22;100.00;94963.13;4980816;28;20188;-69
2022/11/18 01:30:20;;;;;;;6.27;5.97;;;;;;;7.20;100.00;94957.38;4993079;28;20223;-70
2022/11/18 01:32:45;;;;;;;6.47;6.17;;;;;;;7.27;100.00;94963.16;4973069;28;20233;-70
2022/11/18 01:35:11;;;;;;;6.00;5.80;;;;;;;7.22;100.00;94960.53;4963283;28;20188;-69
2022/11/18 01:37:37;;;;;;;6.70;6.40;;;;;;;7.24;100.00;94961.06;4976202;28;20199;-69
2022/11/18 01:40:08;;;;;;;6.63;6.37;;;;;;;7.31;100.00;94969.44;4993763;28;20200;-69
2022/11/18 01:42:34;;;;;;;5.87;5.57;;;;;;;7.25;100.00;94967.03;4982133;28;20177;-68
2022/11/18 01:45:20;;;;;;;7.27;6.87;;;;;;;7.29;100.00;94976.75;4978741;28;20202;-69
2022/11/18 01:48:01;;;;;;;6.43;6.13;;;;;;;7.16;100.00;94971.16;4993635;28;20637;-69
2022/11/18 01:50:27;;;;;;;6.30;6.00;;;;;;;7.25;100.00;94970.44;4994108;28;20616;-67
2022/11/18 01:52:58;;;;;;;5.23;5.00;;;;;;;7.16;100.00;94979.75;4976561;28;20641;-70
2022/11/18 01:55:28;;;;;;;6.17;5.87;;;;;;;7.21;100.00;94976.41;4991117;28;20663;-69
2022/11/18 01:58:18;;;;;;;7.37;6.97;;;;;;;7.25;100.00;94990.50;4975895;28;20609;-70
2022/11/18 02:00:44;;;;;;;6.23;5.93;;;;;;;7.18;100.00;94993.34;4993621;28;20595;-68
2022/11/18 02:03:09;;;;;;;8.27;7.67;;;;;;;7.29;100.00;94987.16;4993675;28;20263;-69
2022/11/18 02:05:36;;;;;;;7.13;6.60;;;;;;;7.30;100.00;94991.31;4976149;28;20204;-70
2022/11/18 02:08:03;;;;;;;7.33;6.93;;;;;;;7.22;100.00;94997.00;4988258;28;20193;-70
2022/11/18 02:10:29;;;;;;;6.80;6.40;;;;;;;7.21;100.00;94999.84;4956897;28;20200;-69
2022/11/18 02:12:56;;;;;;;7.40;7.10;;;;;;;7.29;100.00;95009.81;4974550;28;20250;-69
2022/11/18 02:15:33;;;;;;;7.77;7.00;;;;;;;7.24;100.00;95002.75;4972314;28;20278;-70
2022/11/18 02:18:13;;;;;;;7.00;6.50;;;;;;;7.24;100.00;95015.00;4993346;28;20179;-68
2022/11/18 02:20:43;;;;;;;7.33;6.77;;;;;;;7.25;100.00;95009.53;4993434;28;20188;-69
2022/11/18 02:23:48;;;;;;;7.70;7.20;;;;;;;7.20;100.00;95006.09;4993076;28;20246;-69
2022/11/18 02:26:34;;;;;;;7.93;7.43;;;;;;;7.25;100.00;95012.13;4961231;28;20224;-69
2022/11/18 02:29:08;;;;;;;7.30;6.90;;;;;;;7.29;100.00;94997.59;4974040;28;20225;-69
2022/11/18 02:31:38;;;;;;;8.10;7.77;;;;;;;7.26;100.00;95010.31;4973186;28;20191;-69
2022/11/18 02:34:41;;;;;;;8.07;7.70;;;;;;;7.18;100.00;95000.38;4987170;28;20556;-69
2022/11/18 02:37:32;;;;;;;8.03;7.63;;;;;;;7.23;100.00;95001.19;4973709;28;20199;-69
2022/11/18 02:40:15;;;;;;;8.27;7.77;;;;;;;7.27;100.00;94999.66;4974732;28;20177;-68
2022/11/18 02:42:44;;;;;;;7.33;6.97;;;;;;;7.24;100.00;95009.78;4973615;28;20187;-69
2022/11/18 02:45:16;;;;;;;7.87;7.37;;;;;;;7.21;100.00;95007.66;4981539;28;20309;-69
2022/11/18 02:47:45;;;;;;;7.63;7.23;;;;;;;7.18;100.00;95005.56;4992900;28;20172;-70
2022/11/18 02:50:13;;;;;;;9.97;9.47;;;;;;;7.20;100.00;95008.69;4992760;28;20196;-70
2022/11/18 02:52:41;;;;;;;8.03;7.70;;;;;;;7.16;100.00;95002.41;4992671;28;20203;-69
2022/11/18 02:55:09;;;;;;;9.03;8.43;;;;;;;7.20;100.00;95006.09;4981671;28;20216;-69
2022/11/18 02:57:37;;;;;;;7.53;7.23;;;;;;;7.20;100.00;95004.28;4988368;28;20180;-69
2022/11/18 03:00:03;;;;;;;9.03;8.60;;;;;;;7.15;100.00;95006.06;4975092;28;20188;-69
2022/11/18 03:02:43;;;;;;;8.57;8.20;;;;;;;7.10;100.00;95012.00;4992288;28;20263;-70
2022/11/18 03:05:45;;;;;;;8.07;7.73;;;;;;;7.13;100.00;95023.78;4982107;28;20609;-69
2022/11/18 03:08:19;;;;;;;7.80;7.50;;;;;;;7.13;100.00;95029.78;4989927;28;20260;-69
2022/11/18 03:11:19;;;;;;;8.20;7.83;;;;;;;7.16;100.00;95023.25;4980838;28;20167;-69
2022/11/18 03:14:21;;;;;;;7.10;6.80;;;;;;;7.10;100.00;95033.66;4963355;28;20651;-69
2022/11/18 03:17:18;;;;;;;7.00;6.57;;;;;;;7.16;100.00;95034.47;4961979;28;20187;-70
2022/11/18 03:20:02;;;;;;;6.77;6.37;;;;;;;7.18;100.00;95040.22;4972988;28;20195;-69
2022/11/18 03:22:29;;;;;;;6.00;5.70;;;;;;;7.25;100.00;95045.22;4992352;28;20180;-68
2022/11/18 03:25:06;;;;;;;6.70;6.30;;;;;;;7.11;100.00;95050.06;4983668;28;20247;-68
2022/11/18 03:27:54;;;;;;;5.83;5.53;;;;;;;7.11;100.00;95057.88;4973267;28;20263;-69
2022/11/18 03:30:22;;;;;;;5.77;5.37;;;;;;;7.10;100.00;95056.31;4972676;28;20631;-70
2022/11/18 03:33:11;;;;;;;4.83;4.63;;;;;;;7.10;100.00;95062.28;4975867;28;20236;-69
2022/11/18 03:35:41;;;;;;;6.30;6.00;;;;;;;7.16;100.00;95070.16;4992453;28;20187;-68
2022/11/18 03:38:12;;;;;;;5.30;5.10;;;;;;;7.15;100.00;95073.78;4992668;28;20184;-68
2022/11/18 03:40:40;;;;;;;5.43;5.13;;;;;;;7.13;100.00;95075.88;4992270;28;20183;-69
2022/11/18 03:43:12;;;;;;;6.50;6.17;;;;;;;7.20;100.00;95077.22;4956940;28;20188;-68
2022/11/18 03:45:46;;;;;;;6.57;6.27;;;;;;;7.15;100.00;95087.59;4986110;28;20284;-68
2022/11/18 03:48:33;;;;;;;6.03;5.73;;;;;;;7.14;100.00;95093.84;4977322;28;20264;-68
2022/11/18 03:51:06;;;;;;;6.67;6.37;;;;;;;7.16;100.00;95097.00;4976361;28;20212;-68
2022/11/18 03:53:36;;;;;;;7.87;7.43;;;;;;;7.15;100.00;95099.84;4984690;28;20238;-69
2022/11/18 03:56:13;;;;;;;7.37;6.80;;;;;;;7.13;100.00;95102.72;4985860;28;20666;-68
2022/11/18 03:59:12;;;;;;;4.57;4.37;;;;;;;7.06;100.00;95108.13;4959407;28;20641;-68
2022/11/18 04:01:40;;;;;;;4.90;4.70;;;;;;;6.99;100.00;95104.91;4963433;28;20188;-68
2022/11/18 04:04:06;;;;;;;4.63;4.47;;;;;;;6.93;100.00;95103.28;4959112;28;20263;-68
2022/11/18 04:06:37;;;;;;;5.37;4.70;;;;;;;6.94;100.00;95107.47;4988969;28;20212;-68
2022/11/18 04:09:10;;;;;;;5.77;5.47;;;;;;;6.96;100.00;95113.22;4994845;28;20610;-68
2022/11/18 04:12:02;;;;;;;4.10;3.97;;;;;;;6.93;100.00;95118.13;4995833;28;20192;-68
2022/11/18 04:14:30;;;;;;;4.63;4.43;;;;;;;6.91;100.00;95115.00;4995641;28;20274;-68
2022/11/18 04:16:55;;;;;;;5.03;4.83;;;;;;;6.99;100.00;95117.13;4979674;28;20203;-68
2022/11/18 04:19:20;;;;;;;5.17;4.87;;;;;;;6.93;100.00;95124.13;4976392;28;20197;-68
2022/11/18 04:21:47;;;;;;;4.63;4.43;;;;;;;7.00;100.00;95126.53;4976929;28;20180;-69
2022/11/18 04:24:13;;;;;;;5.30;4.90;;;;;;;6.92;100.00;95129.56;4976225;28;20196;-68
2022/11/18 04:26:38;;;;;;;5.33;5.13;;;;;;;6.82;100.00;95125.03;4976095;28;20567;-69
2022/11/18 04:29:03;;;;;;;4.57;4.37;;;;;;;6.79;100.00;95127.34;4975901;28;20228;-68
2022/11/18 04:31:29;;;;;;;4.97;4.77;;;;;;;6.78;100.00;95126.56;4974840;28;20272;-68
2022/11/18 04:33:54;;;;;;;6.20;6.00;;;;;;;6.84;100.00;95137.81;4987716;28;20184;-68
2022/11/18 04:36:19;;;;;;;5.57;5.37;;;;;;;6.91;100.00;95138.44;4995321;28;20653;-68
2022/11/18 04:38:45;;;;;;;4.83;4.53;;;;;;;6.81;100.00;95140.91;4977011;28;20185;-68
2022/11/18 04:41:10;;;;;;;6.37;6.07;;;;;;;6.78;100.00;95149.19;4980612;28;20712;-68
2022/11/18 04:43:36;;;;;;;6.03;5.73;;;;;;;6.75;100.00;95144.47;4995060;28;20279;-68
2022/11/18 04:46:01;;;;;;;8.90;8.50;;;;;;;6.58;100.00;95150.50;4994735;28;20239;-68
2022/11/18 04:48:27;;;;;;;6.97;6.67;;;;;;;6.62;100.00;95143.81;4975860;28;20541;-68
2022/11/18 04:50:52;;;;;;;7.07;6.77;;;;;;;6.61;100.00;95154.47;4964457;28;20227;-68
2022/11/18 04:53:17;;;;;;;7.80;6.90;;;;;;;6.66;100.00;95151.91;4994547;28;20188;-68
2022/11/18 04:55:43;;;;;;;6.67;6.37;;;;;;;6.59;100.00;95153.91;4994699;28;20196;-69
2022/11/18 04:58:08;;;;;;;6.43;6.13;;;;;;;6.60;100.00;95148.47;4994160;28;20188;-68
2022/11/18 05:00:33;;;;;;;7.13;6.83;;;;;;;6.51;100.00;95154.34;4968044;28;20268;-67
2022/11/18 05:02:59;;;;;;;7.00;6.60;;;;;;;6.51;100.00;95149.13;4994412;28;20188;-67
2022/11/18 05:05:24;;;;;;;5.50;5.30;;;;;;;6.50;100.00;95156.16;4994495;28;20210;-68
2022/11/18 05:07:50;;;;;;;5.83;5.63;;;;;;;6.54;100.00;95153.84;4977499;28;20194;-68
2022/11/18 05:10:15;;;;;;;6.87;6.57;;;;;;;6.52;100.00;95163.72;4994765;28;20266;-67
2022/11/18 05:12:51;;;;;;;5.63;5.43;;;;;;;6.46;100.00;95165.47;4992526;28;20182;-68
2022/11/18 05:15:18;;;;;;;5.03;4.83;;;;;;;6.47;100.00;95168.84;4969392;28;20192;-69
2022/11/18 05:17:44;;;;;;;5.80;5.60;;;;;;;6.39;100.00;95164.06;4975350;28;20208;-68
2022/11/18 05:20:10;;;;;;;5.43;5.23;;;;;;;6.51;100.00;95165.53;4975092;28;20193;-68
2022/11/18 05:22:35;;;;;;;5.57;5.37;;;;;;;6.42;100.00;95166.19;4975041;28;20192;-68
2022/11/18 05:25:01;;;;;;;6.07;5.77;;;;;;;6.41;100.00;95170.59;4994174;28;20194;-68
2022/11/18 05:27:26;;;;;;;5.17;4.97;;;;;;;6.47;100.00;95172.22;4993915;28;20191;-68
2022/11/18 05:29:51;;;;;;;5.43;5.23;;;;;;;6.41;100.00;95175.03;4978071;28;20220;-69
2022/11/18 05:32:17;;;;;;;5.90;5.70;;;;;;;6.42;100.00;95179.97;4992258;28;20184;-68
2022/11/18 05:34:42;;;;;;;6.37;6.17;;;;;;;6.37;100.00;95174.72;4994180;28;20266;-68
2022/11/18 05:37:08;;;;;;;16.33;15.43;;;;;;;6.46;100.00;95175.88;4984887;28;20188;-68
2022/11/18 05:39:33;;;;;;;6.40;6.13;;;;;;;6.29;100.00;95171.75;4974926;28;20267;-68
2022/11/18 05:44:43;;;;;;;6.33;6.03;;;;;;;6.20;100.00;95186.94;4969501;28;20183;-68
2022/11/18 05:47:09;;;;;;;5.93;5.63;;;;;;;6.32;100.00;95190.25;4980882;28;20208;-67
2022/11/18 05:49:34;;;;;;;6.13;5.83;;;;;;;6.26;100.00;95194.59;4975167;28;20597;-68
2022/11/18 05:52:00;;;;;;;5.67;5.37;;;;;;;6.27;100.00;95200.59;4993448;28;20562;-67
2022/11/18 05:54:25;;;;;;;6.30;6.00;;;;;;;6.23;100.00;95202.09;4993676;28;20641;-68
2022/11/18 05:56:50;;;;;;;5.73;5.53;;;;;;;6.27;100.00;95205.78;4980537;28;20294;-67
2022/11/18 05:59:16;;;;;;;5.40;5.20;;;;;;;6.32;100.00;95207.66;4974495;28;20630;-67
2022/11/18 06:01:56;;;;;;;5.53;5.23;;;;;;;6.31;100.00;95206.88;4962725;28;20184;-67
2022/11/18 06:04:21;;;;;;;5.13;4.93;;;;;;;6.25;100.00;95207.84;4993676;28;20176;-69
2022/11/18 06:06:50;;;;;;;5.43;5.23;;;;;;;6.34;100.00;95211.63;4993869;28;20212;-68
2022/11/18 06:09:20;;;;;;;5.20;5.00;;;;;;;6.25;100.00;95206.03;4980898;28;20276;-68
2022/11/18 06:11:51;;;;;;;5.23;5.03;;;;;;;6.29;100.00;95215.97;4989801;28;20220;-69
2022/11/18 06:14:28;;;;;;;4.67;4.40;;;;;;;6.29;100.00;95219.34;4959076;28;20185;-68
2022/11/18 06:16:56;;;;;;;5.73;5.43;;;;;;;6.35;100.00;95217.63;4974242;28;20180;-69
2022/11/18 06:19:22;;;;;;;5.30;5.00;;;;;;;6.32;100.00;95221.47;4974355;28;20243;-68
2022/11/18 06:21:48;;;;;;;4.47;4.37;;;;;;;6.30;100.00;95222.75;4989054;28;20181;-68
2022/11/18 06:24:14;;;;;;;4.83;4.60;;;;;;;6.25;100.00;95220.84;4993111;28;20203;-67
2022/11/18 06:26:40;;;;;;;5.63;5.40;;;;;;;6.38;100.00;95233.53;4993431;28;20212;-68
2022/11/18 06:29:08;;;;;;;6.30;5.90;;;;;;;6.33;100.00;95235.28;4980748;28;20248;-69
2022/11/18 06:31:34;;;;;;;5.90;5.60;;;;;;;6.39;100.00;95237.72;4958156;28;20197;-70
2022/11/18 06:34:00;;;;;;;6.07;5.77;;;;;;;6.41;100.00;95242.69;4973471;28;20200;-69
2022/11/18 06:36:25;;;;;;;5.80;5.60;;;;;;;6.38;100.00;95245.75;4984779;28;20190;-69
2022/11/18 06:38:50;;;;;;;5.23;5.03;;;;;;;6.36;100.00;95248.59;4958340;28;20207;-69
2022/11/18 06:41:16;;;;;;;5.83;5.43;;;;;;;6.42;100.00;95252.03;4975840;28;20689;-69
2022/11/18 06:43:42;;;;;;;6.33;6.00;;;;;;;6.38;100.00;95243.16;4978328;28;20186;-69
2022/11/18 06:48:58;;;;;;;5.13;4.93;;;;;;;6.29;100.00;95253.19;4992716;28;20163;-70
2022/11/18 06:51:24;;;;;;;5.47;5.17;;;;;;;6.38;100.00;95250.94;4975737;28;20270;-70
2022/11/18 06:53:50;;;;;;;5.67;5.27;;;;;;;6.41;100.00;95256.47;4980235;28;20262;-69
2022/11/18 06:56:17;;;;;;;4.67;4.37;;;;;;;6.38;100.00;95256.94;4993201;28;20191;-69
2022/11/18 06:58:43;;;;;;;4.83;4.63;;;;;;;6.48;100.00;95258.91;4993194;28;20192;-69
2022/11/18 07:01:10;;;;;;;3.53;3.43;;;;;;;6.37;100.00;95265.78;4976230;28;20275;-69
2022/11/18 07:03:35;;;;;;;4.00;3.80;;;;;;;6.40;100.00;95264.53;4973790;28;20184;-70
2022/11/18 07:06:01;;;;;;;3.27;3.07;;;;;;;6.46;100.00;95268.78;4973914;28;20568;-70
2022/11/18 07:08:26;;;;;;;4.77;4.57;;;;;;;6.56;100.00;95279.34;4973993;28;20208;-69
2022/11/18 07:10:52;;;;;;;3.67;3.47;;;;;;;6.55;100.00;95280.34;4987980;28;20517;-70
2022/11/18 07:13:18;;;;;;;3.20;3.03;;;;;;;6.62;100.00;95281.78;4992485;28;20263;-69
2022/11/18 07:15:43;;;;;;;3.40;3.30;;;;;;;6.64;100.00;95286.72;4992754;28;20218;-69
2022/11/18 07:18:08;;;;;;;4.53;4.33;;;;;;;6.71;100.00;95289.97;4992805;28;20184;-70
2022/11/18 07:20:34;;;;;;;5.97;5.57;;;;;;;6.64;100.00;95287.53;4976830;28;20187;-70
2022/11/18 07:22:59;;;;;;;2.87;2.77;;;;;;;6.67;100.00;95289.66;4986991;28;20184;-70
2022/11/18 07:25:24;;;;;;;3.37;3.27;;;;;;;6.65;100.00;95294.31;4984363;28;20579;-69
2022/11/18 07:27:50;;;;;;;3.23;3.13;;;;;;;6.60;100.00;95296.06;4997012;28;20230;-70
2022/11/18 07:30:15;;;;;;;3.47;3.27;;;;;;;6.64;100.00;95302.34;4982934;28;20256;-68
2022/11/18 07:32:41;;;;;;;3.60;3.50;;;;;;;6.50;100.00;95303.72;4993163;28;20200;-67
2022/11/18 07:35:06;;;;;;;4.20;4.00;;;;;;;6.50;100.00;95299.28;4991971;28;21012;-68
2022/11/18 07:37:32;;;;;;;3.80;3.60;;;;;;;6.62;100.00;95297.41;4996584;28;20180;-68
2022/11/18 07:39:58;;;;;;;3.83;3.63;;;;;;;6.58;100.00;95304.09;4987183;28;20188;-71
2022/11/18 07:42:24;;;;;;;4.03;3.83;;;;;;;6.71;100.00;95312.59;4977651;28;20184;-70
2022/11/18 07:44:49;;;;;;;3.67;3.57;;;;;;;6.72;100.00;95319.38;4976905;28;20243;-69
2022/11/18 07:47:15;;;;;;;4.03;3.93;;;;;;;6.72;100.00;95320.19;4976872;28;20208;-69
2022/11/18 07:49:40;;;;;;;3.40;3.30;;;;;;;6.65;100.00;95316.94;4977006;28;20194;-69
2022/11/18 07:52:05;;;;;;;4.10;3.63;;;;;;;6.68;100.00;95314.69;4993574;28;20192;-69
2022/11/18 07:54:31;;;;;;;3.00;2.90;;;;;;;6.72;100.00;95314.19;4996349;28;20259;-70
2022/11/18 07:56:56;;;;;;;3.43;3.23;;;;;;;6.75;100.00;95317.09;4995532;28;20518;-69
2022/11/18 07:59:21;;;;;;;3.40;3.23;;;;;;;6.68;100.00;95313.88;4994859;28;20641;-69
2022/11/18 08:01:47;;;;;;;3.20;3.10;;;;;;;6.76;100.00;95316.06;4977861;28;20621;-69
2022/11/18 08:04:12;;;;;;;3.60;3.50;;;;;;;6.82;100.00;95319.53;4976905;28;20654;-70
2022/11/18 08:06:38;;;;;;;3.40;3.17;;;;;;;6.90;100.00;95335.56;4959519;28;20215;-70
2022/11/18 08:09:05;;;;;;;3.30;3.20;;;;;;;6.82;100.00;95341.16;4989211;28;20184;-67
2022/11/18 08:11:31;;;;;;;3.73;3.50;;;;;;;6.83;100.00;95342.75;4962739;28;20196;-68
2022/11/18 08:13:56;;;;;;;13.10;4.20;;;;;;;7.60;100.00;95341.91;4976364;28;20197;-68
2022/11/18 08:16:24;;;;;;;3.40;3.27;;;;;;;7.03;100.00;95355.25;4976789;28;20271;-70
2022/11/18 08:18:50;;;;;;;2.70;2.60;;;;;;;6.94;100.00;95357.50;4976779;28;20185;-71
2022/11/18 08:21:17;;;;;;;3.40;3.30;;;;;;;6.93;100.00;95365.53;4989908;28;20651;-69
2022/11/18 08:23:47;;;;;;;4.40;4.10;;;;;;;6.94;100.00;95367.13;4995104;28;20237;-70
2022/11/18 08:26:13;;;;;;;3.50;3.30;;;;;;;6.88;100.00;95366.25;4986567;28;20223;-71
2022/11/18 08:28:42;;;;;;;3.30;3.10;;;;;;;6.83;100.00;95379.19;4975936;28;20319;-69
2022/11/18 08:31:10;;;;;;;3.60;3.40;;;;;;;6.90;100.00;95379.84;4953432;28;20208;-70
2022/11/18 08:33:35;;;;;;;3.97;3.77;;;;;;;6.78;100.00;95380.94;4976214;28;20280;-70
2022/11/18 08:36:29;;;;;;;3.40;3.30;;;;;;;6.87;100.00;95376.91;4992655;28;20266;-70
2022/11/18 08:38:56;;;;;;;3.33;3.13;;;;;;;6.89;100.00;95380.06;4986982;28;20200;-72
2022/11/18 08:41:31;;;;;;;4.10;3.90;;;;;;;6.89;100.00;95383.47;4986372;28;20190;-73
2022/11/18 08:43:57;;;;;;;3.70;3.60;;;;;;;6.93;100.00;95384.56;4981085;28;20181;-73
2022/11/18 08:46:23;;;;;;;3.90;3.70;;;;;;;6.83;100.00;95392.22;4943182;28;20197;-73
2022/11/18 08:48:48;;;;;;;3.87;3.67;;;;;;;6.92;100.00;95382.97;4952866;28;20212;-74
2022/11/18 08:51:14;;;;;;;3.60;3.50;;;;;;;6.97;100.00;95392.66;4975927;28;20176;-73
2022/11/18 08:53:40;;;;;;;3.37;3.07;;;;;;;6.98;100.00;95387.22;4975699;28;20728;-72
2022/11/18 08:56:05;;;;;;;3.50;3.40;;;;;;;6.99;100.00;95393.22;4975921;28;20189;-72
2022/11/18 08:58:31;;;;;;;3.20;3.10;;;;;;;7.06;100.00;95391.25;4976332;28;20184;-72
2022/11/18 09:00:56;;;;;;;3.13;3.03;;;;;;;7.08;100.00;95395.19;4975868;28;20180;-72
2022/11/18 09:03:22;;;;;;;3.33;3.23;;;;;;;7.03;100.00;95402.94;4975883;28;20169;-73
2022/11/18 09:05:47;;;;;;;2.80;2.70;;;;;;;7.08;100.00;95402.22;4975707;28;20223;-73
2022/11/18 09:08:14;;;;;;;3.30;3.20;;;;;;;7.08;100.00;95400.41;4975935;28;20184;-73
2022/11/18 09:10:40;;;;;;;3.67;3.50;;;;;;;7.14;100.00;95406.47;4975807;28;20235;-73
2022/11/18 09:13:05;;;;;;;3.33;3.23;;;;;;;7.06;100.00;95417.31;4970793;28;20634;-73
2022/11/18 09:15:31;;;;;;;3.67;3.47;;;;;;;7.04;100.00;95416.75;4956569;28;20248;-73
2022/11/18 09:17:57;;;;;;;3.30;3.20;;;;;;;7.04;100.00;95412.34;4956142;29;20177;-73
2022/11/18 09:20:23;;;;;;;3.60;3.40;;;;;;;7.00;100.00;95418.25;4977477;28;20195;-73
2022/11/18 09:22:48;;;;;;;3.30;3.20;;;;;;;7.13;100.00;95420.56;4992603;28;20188;-72
2022/11/18 09:25:13;;;;;;;3.87;3.57;;;;;;;7.10;100.00;95427.00;4977047;28;20193;-71
2022/11/18 09:27:39;;;;;;;3.20;3.10;;;;;;;7.12;100.00;95426.78;4975413;28;20188;-72
2022/11/18 09:30:05;;;;;;;3.30;3.20;;;;;;;7.11;100.00;95417.38;4978557;28;20235;-72
2022/11/18 09:32:32;;;;;;;3.43;3.30;;;;;;;7.10;100.00;95431.44;4984915;28;20181;-72
2022/11/18 09:34:57;;;;;;;3.20;3.03;;;;;;;7.18;100.00;95435.47;4991615;28;20202;-74
2022/11/18 09:37:23;;;;;;;3.37;3.17;;;;;;;7.10;100.00;95434.81;4984319;28;20188;-72
2022/11/18 09:39:48;;;;;;;3.30;3.20;;;;;;;7.26;100.00;95428.03;4974764;28;20267;-72
2022/11/18 09:42:43;;;;;;;3.10;3.00;;;;;;;7.27;100.00;95428.81;4985126;28;20776;-72
2022/11/18 09:45:27;;;;;;;3.87;3.30;;;;;;;7.19;100.00;95435.19;4988136;28;20521;-73
2022/11/18 09:47:56;;;;;;;3.10;3.00;;;;;;;7.30;100.00;95438.78;4993511;28;20525;-72
2022/11/18 09:50:22;;;;;;;3.30;3.17;;;;;;;7.32;100.00;95434.88;4992167;28;20176;-72
2022/11/18 09:52:53;;;;;;;3.67;3.37;;;;;;;7.45;100.00;95437.16;4991986;28;20192;-71
2022/11/18 09:55:19;;;;;;;3.57;3.37;;;;;;;7.47;100.00;95442.13;4962818;28;20271;-71
2022/11/18 09:57:50;;;;;;;3.97;3.87;;;;;;;7.50;100.00;95445.06;4993152;28;20307;-72
2022/11/18 10:00:19;;;;;;;3.33;3.23;;;;;;;7.33;100.00;95446.91;4985164;28;20271;-71
2022/11/18 10:02:54;;;;;;;3.50;3.40;;;;;;;7.45;100.00;95447.59;4988572;28;20719;-71
2022/11/18 10:05:25;;;;;;;4.00;3.70;;;;;;;7.42;100.00;95460.28;4987890;28;20182;-72
2022/11/18 10:07:56;;;;;;;3.70;3.50;;;;;;;7.58;100.00;95459.47;4993516;28;20177;-72
2022/11/18 10:10:34;;;;;;;3.73;3.53;;;;;;;7.74;100.00;95463.09;4992066;28;20207;-72
2022/11/18 10:13:12;;;;;;;3.60;3.40;;;;;;;7.71;100.00;95458.34;4975447;28;20632;-71
2022/11/18 10:16:10;;;;;;;3.60;3.40;;;;;;;7.85;100.00;95464.81;4978993;28;20513;-68
2022/11/18 10:18:52;;;;;;;3.30;3.10;;;;;;;7.79;100.00;95465.78;4983018;28;20206;-74
2022/11/18 10:21:46;;;;;;;3.47;3.27;;;;;;;7.87;100.00;95467.94;4979738;28;20587;-70
2022/11/18 10:24:19;;;;;;;3.83;3.70;;;;;;;7.73;100.00;95466.75;4972749;28;20176;-72
2022/11/18 10:26:45;;;;;;;4.37;4.07;;;;;;;7.79;100.00;95466.56;4992925;28;20213;-71
2022/11/18 10:29:10;;;;;;;4.13;3.93;;;;;;;7.74;100.00;95476.94;4992277;28;20331;-71
2022/11/18 10:31:51;;;;;;;4.80;4.40;;;;;;;7.91;100.00;95467.22;4979286;28;20268;-74
2022/11/18 10:34:18;;;;;;;4.60;4.40;;;;;;;8.00;100.00;95482.47;4974551;28;20523;-71
2022/11/18 10:36:57;;;;;;;4.77;4.27;;;;;;;8.00;100.00;95475.44;4958953;28;20187;-72
2022/11/18 10:39:22;;;;;;;4.37;4.00;;;;;;;7.94;100.00;95476.41;4966695;28;20645;-73
2022/11/18 10:41:57;;;;;;;4.63;4.33;;;;;;;8.10;100.00;95478.16;4990179;28;20226;-72
2022/11/18 10:44:39;;;;;;;5.90;5.30;;;;;;;8.25;100.00;95473.13;4990238;28;20198;-71
2022/11/18 10:47:14;;;;;;;4.53;4.33;;;;;;;8.36;100.00;95465.44;4973868;28;20206;-70
2022/11/18 10:49:39;;;;;;;5.97;5.53;;;;;;;8.50;100.00;95472.66;4977250;28;20250;-70
2022/11/18 10:52:04;;;;;;;8.93;8.07;;;;;;;8.66;100.00;95479.59;4981072;28;20656;-70
2022/11/18 10:54:30;;;;;;;6.50;6.10;;;;;;;8.85;100.00;95472.22;4976989;28;20669;-70
2022/11/18 10:57:02;;;;;;;5.77;5.30;;;;;;;8.75;100.00;95472.09;4977698;28;20204;-71
2022/11/18 10:59:56;;;;;;;6.80;5.17;;;;;;;8.68;100.00;95476.75;4978303;28;20191;-71
2022/11/18 11:02:32;;;;;;;6.67;6.13;;;;;;;8.48;100.00;95479.91;4985283;28;20637;-70
2022/11/18 11:05:03;;;;;;;5.17;4.77;;;;;;;8.26;100.00;95479.91;4993225;28;20267;-71
2022/11/18 11:07:31;;;;;;;5.70;5.43;;;;;;;7.89;100.00;95477.13;4991639;28;20205;-72
2022/11/18 11:10:07;;;;;;;4.60;4.20;;;;;;;7.84;100.00;95482.28;4986185;28;20204;-71
2022/11/18 11:12:58;;;;;;;5.93;5.53;;;;;;;7.85;100.00;95483.88;4952751;28;20192;-71
2022/11/18 11:15:35;;;;;;;5.80;5.40;;;;;;;8.04;100.00;95483.56;4977051;28;20189;-72
2022/11/18 11:18:41;;;;;;;5.83;5.43;;;;;;;8.13;100.00;95488.13;4981709;28;20189;-73
2022/11/18 11:21:18;;;;;;;6.03;5.67;;;;;;;8.28;100.00;95477.88;4960077;28;20196;-71
2022/11/18 11:23:45;;;;;;;5.97;5.57;;;;;;;8.44;100.00;95486.69;4973216;28;20652;-73
2022/11/18 11:26:34;;;;;;;5.10;4.80;;;;;;;8.37;100.00;95490.50;4996208;28;20224;-73
2022/11/18 11:29:21;;;;;;;4.53;4.33;;;;;;;8.23;100.00;95495.28;4981069;28;20252;-72
2022/11/18 11:31:56;;;;;;;5.23;4.93;;;;;;;8.03;100.00;95495.00;4978802;28;20185;-72
2022/11/18 11:34:54;;;;;;;5.53;5.33;;;;;;;7.84;100.00;95497.94;4976628;28;21136;-71
2022/11/18 11:37:33;;;;;;;5.33;4.80;;;;;;;8.08;100.00;95498.47;4973500;28;20243;-73
2022/11/18 11:40:25;;;;;;;4.73;4.53;;;;;;;8.00;100.00;95496.31;4987523;28;20179;-72
2022/11/18 11:43:22;;;;;;;5.33;5.03;;;;;;;8.12;100.00;95502.22;4980142;28;20184;-70
2022/11/18 11:46:22;;;;;;;5.17;4.80;;;;;;;8.49;100.00;95491.16;4960499;28;20702;-66
2022/11/18 11:49:26;;;;;;;4.73;4.43;;;;;;;8.59;100.00;95488.66;4978203;28;20183;-65
2022/11/18 11:51:56;;;;;;;5.20;5.00;;;;;;;8.54;100.00;95491.22;4964660;28;20512;-67
2022/11/18 11:54:55;;;;;;;6.37;6.07;;;;;;;8.44;100.00;95491.91;4974031;28;20617;-66
2022/11/18 11:58:02;;;;;;;5.33;4.43;;;;;;;8.48;100.00;95505.25;4976496;28;20239;-67
2022/11/18 12:00:33;;;;;;;5.60;5.23;;;;;;;8.53;100.00;95502.69;4868684;29;20195;-64